Meath Environmental Platform

Observations for Trim Patrick St

Time AQI Temp °C Hum % Pres Pa CO μg/m³ H₂S μg/m³ NO μg/m³ NO₂ μg/m³ O₃ μg/m³ SO₂ μg/m³ PM1 μg/m³ PM2.5 μg/m³ PM10 μg/m³
Tuesday 4 August 2026
06:47 1 17.9 89 38,374 0.17 1.77 2.46 8.28 25.11 0 8 10.8 11.88
06:46 1 17.9 89 38,374 0.18 4.54 2.46 23.34 24.21 0 8.86 12.83 14.12
06:45 1 17.9 89 38,374 0.17 2.97 2.46 18.59 25.88 0 8 10.8 11.88
06:44 1 17.9 89 38,374 0.18 3.34 2.46 17.32 25.04 0 9.71 12.84 14.13
06:43 1 17.9 89 38,374 0.17 1.37 2.47 15.69 24.76 0 7.14 11.47 12.62
06:42 1 17.9 89 38,374 0.18 2.32 2.47 13.67 34.5 0 8.86 12.15 13.37
06:41 1 17.8 89 38,374 0.18 2.19 2.44 16.32 29.16 0 8 12.16 13.38
06:40 1 17.8 89 38,374 0.18 0 2.43 4.05 29.97 0 8 12.15 13.37
06:38 1 17.8 89 38,374 0.17 0.93 2.45 12.98 27.36 0 7.14 10.79 11.87
06:35 1 17.7 89 38,374 0.17 1.9 2.44 7.31 26.08 0 8 10.79 11.87
06:34 1 17.7 89 38,374 0.2 3.47 2.45 22.94 34.08 0 8.86 12.15 13.37
06:33 1 17.7 89 38,374 0.17 2.29 2.44 3.94 27.57 0 6.29 10.11 11.12
06:32 1 17.7 89 38,374 0.18 3.86 2.44 17.72 39.63 0 7.14 9.43 10.38
06:31 1 17.7 89 38,374 0.17 3.16 2.43 18.98 28.72 0 7.14 10.12 11.13
06:30 1 17.7 89 38,374 0.17 2.37 2.43 12.24 37.17 0 7.14 11.48 12.63
06:29 1 17.7 88 38,374 0.18 3.52 2.42 15.95 36.31 0 7.14 10.81 11.9
06:28 1 17.7 88 38,374 0.2 3.76 2.4 14.29 37.81 0 8.86 10.83 11.91
06:25 1 17.6 89 38,374 0.18 2.71 2.42 11.83 35.26 0 8 10.79 11.87
06:24 1 17.5 89 38,374 0.18 1.69 2.38 8.29 32.35 0 8 10.79 11.87
06:22 1 17.5 89 38,374 0.19 2.27 2.41 6.79 35.28 0 8.86 12.83 14.12